createdAt,value
2018-06-16T00:02:11.676Z,16.90
2018-06-16T00:04:40.349Z,16.80
2018-06-16T00:07:09.019Z,16.80
2018-06-16T00:12:05.994Z,16.70
2018-06-16T00:14:34.584Z,16.60
2018-06-16T00:17:03.226Z,16.60
2018-06-16T00:19:31.806Z,16.50
2018-06-16T00:22:00.410Z,16.50
2018-06-16T00:24:29.007Z,16.50
2018-06-16T00:26:57.640Z,16.40
2018-06-16T00:29:26.217Z,16.50
2018-06-16T00:31:54.894Z,16.50
2018-06-16T00:34:23.491Z,16.60
2018-06-16T00:36:52.081Z,16.60
2018-06-16T00:39:20.694Z,16.60
2018-06-16T00:41:49.285Z,16.60
2018-06-16T00:44:17.865Z,16.60
2018-06-16T00:46:46.485Z,16.60
2018-06-16T00:49:15.053Z,16.60
2018-06-16T00:51:43.653Z,16.70
2018-06-16T00:56:40.626Z,16.70
2018-06-16T00:59:09.215Z,16.70
2018-06-16T01:01:37.881Z,16.70
2018-06-16T01:04:06.476Z,16.80
2018-06-16T01:06:35.106Z,16.80
2018-06-16T01:09:03.783Z,16.90
2018-06-16T01:11:32.393Z,16.90
2018-06-16T01:14:00.981Z,16.90
2018-06-16T01:16:29.567Z,16.90
2018-06-16T01:18:58.141Z,16.90
2018-06-16T01:21:26.744Z,16.90
2018-06-16T01:23:55.357Z,16.90
2018-06-16T01:26:23.973Z,16.90
2018-06-16T01:28:52.589Z,16.90
2018-06-16T01:31:21.178Z,16.90
2018-06-16T01:33:49.781Z,16.90
2018-06-16T01:36:18.353Z,16.90
2018-06-16T01:38:46.945Z,16.80
2018-06-16T01:41:15.509Z,16.80
2018-06-16T01:43:44.097Z,16.80
2018-06-16T01:46:12.697Z,16.80
2018-06-16T01:48:41.289Z,16.80
2018-06-16T01:51:10.057Z,16.80
2018-06-16T01:53:38.679Z,16.80
2018-06-16T01:56:07.338Z,16.80
2018-06-16T01:58:35.947Z,16.80
2018-06-16T02:01:04.544Z,16.70
2018-06-16T02:03:33.141Z,16.70
2018-06-16T02:06:01.719Z,16.60
2018-06-16T02:08:30.320Z,16.60
2018-06-16T02:10:58.925Z,16.60
2018-06-16T02:13:27.502Z,16.60
2018-06-16T02:15:56.126Z,16.50
2018-06-16T02:18:24.725Z,16.50
2018-06-16T02:23:21.574Z,16.50
2018-06-16T02:25:50.164Z,16.50
2018-06-16T02:28:18.745Z,16.50
2018-06-16T02:30:47.345Z,16.50
2018-06-16T02:33:15.917Z,16.50
2018-06-16T02:35:44.537Z,16.40
2018-06-16T02:38:13.105Z,16.40
2018-06-16T02:40:41.776Z,16.40
2018-06-16T02:43:10.433Z,16.40
2018-06-16T02:45:39.302Z,16.40
2018-06-16T02:48:07.982Z,16.40
2018-06-16T02:50:36.816Z,16.40
2018-06-16T02:53:05.530Z,16.40
2018-06-16T02:55:34.203Z,16.40
2018-06-16T02:58:02.830Z,16.40
2018-06-16T03:00:31.417Z,16.40
2018-06-16T03:03:00.885Z,16.30
2018-06-16T03:05:29.477Z,16.30
2018-06-16T03:07:58.074Z,16.30
2018-06-16T03:10:27.653Z,16.30
2018-06-16T03:12:56.262Z,16.30
2018-06-16T03:15:24.889Z,16.30
2018-06-16T03:17:53.489Z,16.20
2018-06-16T03:20:22.103Z,16.20
2018-06-16T03:22:50.662Z,16.20
2018-06-16T03:25:19.270Z,16.20
2018-06-16T03:27:47.849Z,16.20
2018-06-16T03:30:16.464Z,16.10
2018-06-16T03:32:45.041Z,16.10
2018-06-16T03:35:13.639Z,16.10
2018-06-16T03:37:42.210Z,16.10
2018-06-16T03:40:10.866Z,16.10
2018-06-16T03:45:07.791Z,16.00
2018-06-16T03:47:36.434Z,16.10
2018-06-16T03:50:05.455Z,16.00
2018-06-16T03:52:34.044Z,16.00
2018-06-16T03:55:02.614Z,16.10
2018-06-16T03:57:31.218Z,16.10
2018-06-16T03:59:59.777Z,16.00
2018-06-16T04:02:28.373Z,16.00
2018-06-16T04:04:56.954Z,16.00
2018-06-16T04:07:25.598Z,16.00
2018-06-16T04:09:54.190Z,16.00
2018-06-16T04:12:23.189Z,16.00
2018-06-16T04:14:58.126Z,16.10
2018-06-16T04:17:26.737Z,16.10
2018-06-16T04:19:55.326Z,16.10
2018-06-16T04:22:23.949Z,16.10
2018-06-16T04:24:52.597Z,16.10
2018-06-16T04:27:21.205Z,16.10
2018-06-16T04:29:49.780Z,16.20
2018-06-16T04:32:18.349Z,16.20
2018-06-16T04:34:46.978Z,16.20
2018-06-16T04:37:15.538Z,16.20
2018-06-16T04:39:44.163Z,16.30
2018-06-16T04:42:12.751Z,16.30
2018-06-16T04:44:41.383Z,16.30
2018-06-16T04:47:10.054Z,16.30
2018-06-16T04:49:38.670Z,16.30
2018-06-16T04:52:07.282Z,16.40
2018-06-16T04:54:35.882Z,16.40
2018-06-16T04:57:04.521Z,16.50
2018-06-16T04:59:33.147Z,16.40
2018-06-16T05:02:01.726Z,16.50
2018-06-16T05:04:30.375Z,16.50
2018-06-16T05:06:58.934Z,16.60
2018-06-16T05:09:27.525Z,16.60
2018-06-16T05:11:56.142Z,16.70
2018-06-16T05:14:24.764Z,16.70
2018-06-16T05:16:53.395Z,16.70
2018-06-16T05:19:21.982Z,16.70
2018-06-16T05:21:50.616Z,16.70
2018-06-16T05:24:19.161Z,16.70
2018-06-16T05:26:47.763Z,16.80
2018-06-16T05:29:16.360Z,16.80
2018-06-16T05:31:44.952Z,16.80
2018-06-16T05:34:13.541Z,16.90
2018-06-16T05:36:42.190Z,16.90
2018-06-16T05:39:11.214Z,16.90
2018-06-16T05:41:39.863Z,16.90
2018-06-16T05:44:08.474Z,16.90
2018-06-16T05:46:37.137Z,17.00
2018-06-16T05:49:05.874Z,17.10
2018-06-16T05:51:34.461Z,17.10
2018-06-16T05:54:03.120Z,17.20
2018-06-16T05:56:31.680Z,17.30
2018-06-16T05:59:00.280Z,17.30
2018-06-16T06:01:28.849Z,17.30
2018-06-16T06:03:57.437Z,17.40
2018-06-16T06:06:26.017Z,17.50
2018-06-16T06:08:54.667Z,17.60
2018-06-16T06:11:23.266Z,17.70
2018-06-16T06:13:51.993Z,17.80
2018-06-16T06:16:20.567Z,17.80
2018-06-16T06:18:49.158Z,17.80
2018-06-16T06:21:17.737Z,17.90
2018-06-16T06:23:46.318Z,17.90
2018-06-16T06:26:14.906Z,17.90
2018-06-16T06:28:43.473Z,17.90
2018-06-16T06:31:12.069Z,17.90
2018-06-16T06:33:40.827Z,18.00
2018-06-16T06:36:09.629Z,18.00
2018-06-16T06:38:38.361Z,18.00
2018-06-16T06:41:07.319Z,18.00
2018-06-16T06:43:35.936Z,18.10
2018-06-16T06:46:04.555Z,18.10
2018-06-16T06:48:33.142Z,18.10
2018-06-16T06:51:01.786Z,18.20
2018-06-16T06:53:30.337Z,18.30
2018-06-16T06:55:58.963Z,18.30
2018-06-16T06:58:27.542Z,18.40
2018-06-16T07:00:56.157Z,18.40
2018-06-16T07:03:24.777Z,18.40
2018-06-16T07:05:53.472Z,18.40
2018-06-16T07:08:22.534Z,18.40
2018-06-16T07:10:51.209Z,18.50
2018-06-16T07:13:19.823Z,18.60
2018-06-16T07:15:48.414Z,18.60
2018-06-16T07:18:17.154Z,18.70
2018-06-16T07:20:45.766Z,18.80
2018-06-16T07:23:14.417Z,18.90
2018-06-16T07:25:43.018Z,18.90
2018-06-16T07:28:11.653Z,18.90
2018-06-16T07:30:40.372Z,18.90
2018-06-16T07:33:09.027Z,18.90
2018-06-16T07:35:37.706Z,19.00
2018-06-16T07:38:06.371Z,18.90
2018-06-16T07:40:34.983Z,19.00
2018-06-16T07:43:03.580Z,19.10
2018-06-16T07:45:32.182Z,19.30
2018-06-16T07:48:00.818Z,19.40
2018-06-16T07:50:29.447Z,19.50
2018-06-16T07:52:58.053Z,19.60
2018-06-16T07:55:26.642Z,19.60
2018-06-16T07:57:56.574Z,19.70
2018-06-16T08:00:25.210Z,19.80
2018-06-16T08:02:53.825Z,19.80
2018-06-16T08:05:22.413Z,19.80
2018-06-16T08:07:51.086Z,19.80
2018-06-16T08:10:19.644Z,19.90
2018-06-16T08:12:48.261Z,20.00
2018-06-16T08:15:16.857Z,20.00
2018-06-16T08:17:45.529Z,20.10
2018-06-16T08:20:14.102Z,20.20
2018-06-16T08:22:42.697Z,20.30
2018-06-16T08:25:11.291Z,20.30
2018-06-16T08:27:39.895Z,20.40
2018-06-16T08:30:08.579Z,20.50
2018-06-16T08:32:37.764Z,20.50
2018-06-16T08:35:06.513Z,20.60
2018-06-16T08:37:35.137Z,20.60
2018-06-16T08:40:03.833Z,20.70
2018-06-16T08:42:32.429Z,20.70
2018-06-16T08:45:01.037Z,20.70
2018-06-16T08:47:29.656Z,20.70
2018-06-16T08:49:58.251Z,20.80
2018-06-16T08:52:26.936Z,20.80
2018-06-16T08:54:55.741Z,20.90
2018-06-16T08:57:24.331Z,20.90
2018-06-16T08:59:52.917Z,21.00
2018-06-16T09:02:21.478Z,21.00
2018-06-16T09:04:50.242Z,21.00
2018-06-16T09:07:18.845Z,21.00
2018-06-16T09:09:47.439Z,21.10
2018-06-16T09:12:16.009Z,21.10
2018-06-16T09:14:44.617Z,21.10
2018-06-16T09:17:13.202Z,21.20
2018-06-16T09:19:41.871Z,21.30
2018-06-16T09:22:10.473Z,21.40
2018-06-16T09:24:39.074Z,21.60
2018-06-16T09:29:35.920Z,21.90
2018-06-16T09:32:04.557Z,22.00
2018-06-16T09:34:33.124Z,22.10
2018-06-16T09:37:01.734Z,22.10
2018-06-16T09:39:30.288Z,22.10
2018-06-16T09:41:58.906Z,22.20
2018-06-16T09:44:27.492Z,22.30
2018-06-16T09:46:56.154Z,22.30
2018-06-16T09:49:24.760Z,22.40
2018-06-16T09:51:53.429Z,22.40
2018-06-16T09:54:22.064Z,22.30
2018-06-16T09:56:50.776Z,22.40
2018-06-16T09:59:19.363Z,22.40
2018-06-16T10:01:48.002Z,22.40
2018-06-16T10:04:16.656Z,22.60
2018-06-16T10:06:45.242Z,22.80
2018-06-16T10:09:13.903Z,22.80
2018-06-16T10:11:42.533Z,22.80
2018-06-16T10:14:11.142Z,22.80
2018-06-16T10:16:39.871Z,22.80
2018-06-16T10:19:08.483Z,22.80
2018-06-16T10:21:37.111Z,22.90
2018-06-16T10:24:05.789Z,23.00
2018-06-16T10:26:34.389Z,23.00
2018-06-16T10:29:03.157Z,23.10
2018-06-16T10:31:32.005Z,23.20
2018-06-16T10:34:00.666Z,23.20
2018-06-16T10:36:29.643Z,23.30
2018-06-16T10:38:58.226Z,23.40
2018-06-16T10:41:26.854Z,23.60
2018-06-16T10:43:55.447Z,23.70
2018-06-16T10:46:24.169Z,23.70
2018-06-16T10:48:53.161Z,23.80
2018-06-16T10:51:21.794Z,23.80
2018-06-16T10:53:50.397Z,23.80
2018-06-16T10:56:18.993Z,23.80
2018-06-16T11:01:15.999Z,24.00
2018-06-16T11:03:44.746Z,24.20
2018-06-16T11:06:13.333Z,24.50
2018-06-16T11:08:41.913Z,24.70
2018-06-16T11:11:10.614Z,24.80
2018-06-16T11:13:39.369Z,25.00
2018-06-16T11:16:08.190Z,25.20
2018-06-16T11:18:38.123Z,25.10
2018-06-16T11:21:06.999Z,25.10
2018-06-16T11:23:35.642Z,25.00
2018-06-16T11:26:06.361Z,24.90
2018-06-16T11:28:34.990Z,24.70
2018-06-16T11:31:03.585Z,24.70
2018-06-16T11:33:36.723Z,24.70
2018-06-16T11:36:05.490Z,24.70
2018-06-16T11:38:34.102Z,24.70
2018-06-16T11:41:02.898Z,24.80
2018-06-16T11:43:31.494Z,24.90
2018-06-16T11:46:00.079Z,25.00
2018-06-16T11:48:28.755Z,24.90
2018-06-16T11:50:57.336Z,24.80
2018-06-16T11:53:25.918Z,24.60
2018-06-16T11:55:55.759Z,24.80
2018-06-16T11:58:24.345Z,24.90
2018-06-16T12:00:52.982Z,24.90
2018-06-16T12:03:23.270Z,24.90
2018-06-16T12:08:20.162Z,25.00
2018-06-16T12:10:48.791Z,24.90
2018-06-16T12:13:17.385Z,25.00
2018-06-16T12:15:45.960Z,25.30
2018-06-16T12:18:14.559Z,25.50
2018-06-16T12:20:43.191Z,25.30
2018-06-16T12:23:11.771Z,25.40
2018-06-16T12:25:41.603Z,25.60
2018-06-16T12:28:10.199Z,25.50
2018-06-16T12:30:40.438Z,25.80
2018-06-16T12:33:09.074Z,25.90
2018-06-16T12:35:37.732Z,26.10
2018-06-16T12:38:06.494Z,26.50
2018-06-16T12:40:36.289Z,27.00
2018-06-16T12:43:05.021Z,27.40
2018-06-16T12:45:33.605Z,27.40
2018-06-16T12:48:02.683Z,27.30
2018-06-16T12:50:31.285Z,26.80
2018-06-16T12:52:59.861Z,26.60
2018-06-16T12:55:28.566Z,26.20
2018-06-16T12:57:57.234Z,25.70
2018-06-16T13:00:25.753Z,25.20
2018-06-16T13:02:54.466Z,24.90
2018-06-16T13:05:23.073Z,24.50
2018-06-16T13:07:51.725Z,24.10
2018-06-16T13:10:20.396Z,23.80
2018-06-16T13:12:48.972Z,23.60
2018-06-16T13:15:17.578Z,23.30
2018-06-16T13:17:46.203Z,23.10
2018-06-16T13:20:14.801Z,22.90
2018-06-16T13:22:43.481Z,22.80
2018-06-16T13:25:12.073Z,22.70
2018-06-16T13:27:40.653Z,22.50
2018-06-16T13:30:09.251Z,22.40
2018-06-16T13:32:37.901Z,22.40
2018-06-16T13:35:06.547Z,22.20
2018-06-16T13:37:35.147Z,22.10
2018-06-16T13:40:03.851Z,22.00
2018-06-16T13:42:33.803Z,22.00
2018-06-16T13:45:02.393Z,21.90
2018-06-16T13:47:31.013Z,21.80
2018-06-16T13:49:59.657Z,21.80
2018-06-16T13:52:28.241Z,21.80
2018-06-16T13:54:56.994Z,21.80
2018-06-16T13:57:25.594Z,21.90
2018-06-16T13:59:54.253Z,22.00
2018-06-16T14:02:22.905Z,22.30
2018-06-16T14:04:51.550Z,22.70
2018-06-16T14:07:20.132Z,23.20
2018-06-16T14:09:48.783Z,24.20
2018-06-16T14:12:17.539Z,25.00
2018-06-16T14:14:46.128Z,25.60
2018-06-16T14:17:14.757Z,26.30
2018-06-16T14:22:11.583Z,27.20
2018-06-16T14:24:40.270Z,27.60
2018-06-16T14:27:08.882Z,27.90
2018-06-16T14:29:37.667Z,28.10
2018-06-16T14:32:06.307Z,28.40
2018-06-16T14:34:34.900Z,28.60
2018-06-16T14:37:03.527Z,28.50
2018-06-16T14:39:32.136Z,28.10
2018-06-16T14:42:00.738Z,27.50
2018-06-16T14:44:29.530Z,27.50
2018-06-16T14:46:58.174Z,27.50
2018-06-16T14:49:26.760Z,27.50
2018-06-16T14:51:55.361Z,27.50
2018-06-16T14:54:24.089Z,27.70
2018-06-16T14:56:52.788Z,27.90
2018-06-16T14:59:21.341Z,28.00
2018-06-16T15:01:49.953Z,28.20
2018-06-16T15:04:18.587Z,28.00
2018-06-16T15:06:47.198Z,27.80
2018-06-16T15:09:15.805Z,27.90
2018-06-16T15:11:44.409Z,27.40
2018-06-16T15:14:12.980Z,27.10
2018-06-16T15:16:41.606Z,27.10
2018-06-16T15:19:10.206Z,27.30
2018-06-16T15:21:38.809Z,27.50
2018-06-16T15:24:07.521Z,27.40
2018-06-16T15:26:36.126Z,27.30
2018-06-16T15:29:04.724Z,27.00
2018-06-16T15:31:33.325Z,26.60
2018-06-16T15:34:01.894Z,26.20
2018-06-16T15:36:30.494Z,25.80
2018-06-16T15:38:59.106Z,25.50
2018-06-16T15:41:27.702Z,25.30
2018-06-16T15:43:56.275Z,25.10
2018-06-16T15:46:24.905Z,24.90
2018-06-16T15:48:53.562Z,24.70
2018-06-16T15:51:22.147Z,24.40
2018-06-16T15:53:50.759Z,24.20
2018-06-16T15:56:19.366Z,24.10
2018-06-16T15:58:47.971Z,23.90
2018-06-16T16:01:16.615Z,23.80
2018-06-16T16:03:45.242Z,23.60
2018-06-16T16:06:13.852Z,23.40
2018-06-16T16:08:42.495Z,23.20
2018-06-16T16:11:11.129Z,23.00
2018-06-16T16:13:39.772Z,22.90
2018-06-16T16:16:08.645Z,22.80
2018-06-16T16:18:37.262Z,22.70
2018-06-16T16:21:05.939Z,22.50
2018-06-16T16:23:34.513Z,22.50
2018-06-16T16:26:03.149Z,22.40
2018-06-16T16:28:31.777Z,22.10
2018-06-16T16:33:28.605Z,20.90
2018-06-16T16:35:57.209Z,20.70
2018-06-16T16:38:25.823Z,20.30
2018-06-16T16:40:54.493Z,20.20
2018-06-16T16:43:23.077Z,20.00
2018-06-16T16:45:51.722Z,19.90
2018-06-16T16:48:20.314Z,19.90
2018-06-16T16:50:48.957Z,19.70
2018-06-16T16:55:47.397Z,19.60
2018-06-16T16:58:16.026Z,19.50
2018-06-16T17:00:44.618Z,19.60
2018-06-16T17:03:13.245Z,19.60
2018-06-16T17:05:41.859Z,19.60
2018-06-16T17:08:10.510Z,19.60
2018-06-16T17:10:39.171Z,19.50
2018-06-16T17:13:07.829Z,19.60
2018-06-16T17:15:38.553Z,19.50
2018-06-16T17:18:07.169Z,19.50
2018-06-16T17:20:37.451Z,19.60
2018-06-16T17:23:06.153Z,19.60
2018-06-16T17:25:34.768Z,19.50
2018-06-16T17:28:03.364Z,19.60
2018-06-16T17:30:33.482Z,19.60
2018-06-16T17:33:02.090Z,19.50
2018-06-16T17:35:30.721Z,19.40
2018-06-16T17:37:59.326Z,19.30
2018-06-16T17:40:27.934Z,19.30
2018-06-16T17:42:57.237Z,19.20
2018-06-16T17:45:25.929Z,19.10
2018-06-16T17:47:54.529Z,19.10
2018-06-16T17:50:24.866Z,19.10
2018-06-16T17:52:53.566Z,19.20
2018-06-16T17:55:22.182Z,19.20
2018-06-16T17:57:50.763Z,19.20
2018-06-16T18:00:19.436Z,19.20
2018-06-16T18:02:48.018Z,19.20
2018-06-16T18:05:16.625Z,19.20
2018-06-16T18:07:45.237Z,19.20
2018-06-16T18:10:13.818Z,19.20
2018-06-16T18:12:42.433Z,19.20
2018-06-16T18:15:11.096Z,19.20
2018-06-16T18:17:39.889Z,19.10
2018-06-16T18:20:08.893Z,19.00
2018-06-16T18:22:37.639Z,19.00
2018-06-16T18:25:06.334Z,18.90
2018-06-16T18:27:34.953Z,18.90
2018-06-16T18:30:03.729Z,18.80
2018-06-16T18:32:32.365Z,18.70
2018-06-16T18:37:29.190Z,18.50
2018-06-16T18:39:57.807Z,18.40
2018-06-16T18:42:26.404Z,18.40
2018-06-16T18:44:55.030Z,18.30
2018-06-16T18:47:23.627Z,18.30
2018-06-16T18:49:52.301Z,18.20
2018-06-16T18:52:20.903Z,18.20
2018-06-16T18:54:49.542Z,18.10
2018-06-16T18:57:18.130Z,18.20
2018-06-16T18:59:46.734Z,18.10
2018-06-16T19:02:16.376Z,18.10
2018-06-16T19:04:44.986Z,18.00
2018-06-16T19:07:13.586Z,18.00
2018-06-16T19:09:42.198Z,18.00
2018-06-16T19:12:10.910Z,18.00
2018-06-16T19:14:39.574Z,17.90
2018-06-16T19:17:08.908Z,17.90
2018-06-16T19:19:37.569Z,17.80
2018-06-16T19:22:10.039Z,17.90
2018-06-16T19:24:39.536Z,17.80
2018-06-16T19:27:08.263Z,17.90
2018-06-16T19:29:37.989Z,17.90
2018-06-16T19:32:06.760Z,17.80
2018-06-16T19:34:35.380Z,17.90
2018-06-16T19:37:03.985Z,17.80
2018-06-16T19:39:34.217Z,17.80
2018-06-16T19:42:02.801Z,17.80
2018-06-16T19:44:31.427Z,17.80
2018-06-16T19:47:00.057Z,17.80
2018-06-16T19:49:30.463Z,17.80
2018-06-16T19:51:59.097Z,17.80
2018-06-16T19:54:27.670Z,17.70
2018-06-16T19:56:56.267Z,17.70
2018-06-16T19:59:25.538Z,17.70
2018-06-16T20:01:54.269Z,17.60
2018-06-16T20:04:22.910Z,17.60
2018-06-16T20:06:53.483Z,17.60
2018-06-16T20:09:22.092Z,17.50
2018-06-16T20:11:50.722Z,17.50
2018-06-16T20:14:19.280Z,17.50
2018-06-16T20:16:48.678Z,17.40
2018-06-16T20:19:17.338Z,17.40
2018-06-16T20:21:45.926Z,17.40
2018-06-16T20:24:14.526Z,17.40
2018-06-16T20:26:43.125Z,17.40
2018-06-16T20:29:11.806Z,17.40
2018-06-16T20:31:40.477Z,17.40
2018-06-16T20:34:09.834Z,17.40
2018-06-16T20:36:38.527Z,17.30
2018-06-16T20:39:07.864Z,17.30
2018-06-16T20:41:36.513Z,17.30
2018-06-16T20:44:05.131Z,17.20
2018-06-16T20:46:33.733Z,17.20
2018-06-16T20:49:02.377Z,17.20
2018-06-16T20:53:59.214Z,17.20
2018-06-16T20:56:27.820Z,17.20
2018-06-16T20:58:56.389Z,17.20
2018-06-16T21:01:24.978Z,17.20
2018-06-16T21:03:53.684Z,17.20
2018-06-16T21:06:22.260Z,17.20
2018-06-16T21:08:50.831Z,17.10
2018-06-16T21:11:19.413Z,17.20
2018-06-16T21:13:48.479Z,17.20
2018-06-16T21:16:17.058Z,17.20
2018-06-16T21:18:45.653Z,17.20
2018-06-16T21:21:14.254Z,17.20
2018-06-16T21:23:42.938Z,17.10
2018-06-16T21:26:11.487Z,17.10
2018-06-16T21:28:40.117Z,17.10
2018-06-16T21:31:08.714Z,17.10
2018-06-16T21:33:37.370Z,17.10
2018-06-16T21:36:06.095Z,17.00
2018-06-16T21:38:34.695Z,17.00
2018-06-16T21:41:03.301Z,17.00
2018-06-16T21:43:31.913Z,16.90
2018-06-16T21:46:00.582Z,16.80
2018-06-16T21:48:29.149Z,16.80
2018-06-16T21:50:58.061Z,16.70
2018-06-16T21:53:26.650Z,16.70
2018-06-16T21:55:55.261Z,16.60
2018-06-16T21:58:23.853Z,16.60
2018-06-16T22:00:52.658Z,16.60
2018-06-16T22:03:21.242Z,16.50
2018-06-16T22:05:49.845Z,16.50
2018-06-16T22:08:20.325Z,16.40
2018-06-16T22:10:48.971Z,16.30
2018-06-16T22:13:17.541Z,16.20
2018-06-16T22:15:46.202Z,16.20
2018-06-16T22:18:14.789Z,16.10
2018-06-16T22:20:43.418Z,16.00
2018-06-16T22:23:12.011Z,16.00
2018-06-16T22:25:40.610Z,15.90
2018-06-16T22:30:37.512Z,15.80
2018-06-16T22:33:06.338Z,15.80
2018-06-16T22:35:34.933Z,15.70
2018-06-16T22:38:03.569Z,15.70
2018-06-16T22:40:32.124Z,15.60
2018-06-16T22:43:00.730Z,15.50
2018-06-16T22:45:29.311Z,15.50
2018-06-16T22:47:57.889Z,15.40
2018-06-16T22:50:26.501Z,15.40
2018-06-16T22:52:55.214Z,15.40
2018-06-16T22:55:23.838Z,15.30
2018-06-16T22:57:52.451Z,15.30
2018-06-16T23:00:23.358Z,15.20
2018-06-16T23:02:52.006Z,15.20
2018-06-16T23:05:21.352Z,15.20
2018-06-16T23:07:49.948Z,15.10
2018-06-16T23:10:18.555Z,15.10
2018-06-16T23:12:47.186Z,15.10
2018-06-16T23:15:16.262Z,15.00
2018-06-16T23:17:44.829Z,15.00
2018-06-16T23:20:13.533Z,14.90
2018-06-16T23:22:42.103Z,15.00
2018-06-16T23:25:10.718Z,15.00
2018-06-16T23:27:39.305Z,15.00
2018-06-16T23:30:08.030Z,15.00
2018-06-16T23:32:36.705Z,15.00
2018-06-16T23:35:05.359Z,15.10
2018-06-16T23:37:33.974Z,15.10
2018-06-16T23:40:02.579Z,15.10
2018-06-16T23:42:31.157Z,15.10
2018-06-16T23:44:59.754Z,15.00
2018-06-16T23:47:28.345Z,15.00
2018-06-16T23:49:56.945Z,15.00
2018-06-16T23:52:25.612Z,15.00
2018-06-16T23:54:57.889Z,14.90
2018-06-16T23:57:26.518Z,14.90
2018-06-16T23:59:58.334Z,14.90
